createdAt,value
2018-04-08T00:02:17.814Z,23.97
2018-04-08T00:04:43.886Z,22.73
2018-04-08T00:07:09.909Z,24.63
2018-04-08T00:09:36.010Z,25.47
2018-04-08T00:12:03.794Z,23.83
2018-04-08T00:14:30.729Z,25.20
2018-04-08T00:16:56.846Z,21.50
2018-04-08T00:19:22.906Z,25.33
2018-04-08T00:21:50.702Z,27.53
2018-04-08T00:24:17.351Z,19.60
2018-04-08T00:26:43.745Z,22.53
2018-04-08T00:29:09.979Z,23.17
2018-04-08T00:31:37.265Z,21.97
2018-04-08T00:34:03.397Z,20.70
2018-04-08T00:36:29.519Z,25.17
2018-04-08T00:38:55.875Z,21.30
2018-04-08T00:41:21.888Z,20.27
2018-04-08T00:43:48.115Z,18.43
2018-04-08T00:46:16.125Z,19.50
2018-04-08T00:48:42.222Z,23.37
2018-04-08T00:51:08.326Z,19.60
2018-04-08T00:53:35.237Z,20.63
2018-04-08T00:56:01.343Z,15.23
2018-04-08T00:58:27.386Z,20.37
2018-04-08T01:00:53.504Z,21.23
2018-04-08T01:03:19.643Z,20.20
2018-04-08T01:05:45.694Z,22.67
2018-04-08T01:08:11.726Z,17.80
2018-04-08T01:10:37.810Z,22.93
2018-04-08T01:13:04.454Z,20.63
2018-04-08T01:15:30.528Z,16.57
2018-04-08T01:17:56.702Z,25.20
2018-04-08T01:20:22.752Z,18.37
2018-04-08T01:22:50.446Z,19.27
2018-04-08T01:25:16.495Z,19.33
2018-04-08T01:27:42.598Z,22.33
2018-04-08T01:30:08.705Z,16.13
2018-04-08T01:32:34.826Z,20.90
2018-04-08T01:35:00.895Z,19.37
2018-04-08T01:37:27.009Z,17.50
2018-04-08T01:39:53.187Z,17.40
2018-04-08T01:42:19.361Z,18.57
2018-04-08T01:44:46.160Z,26.03
2018-04-08T01:47:12.936Z,23.70
2018-04-08T01:49:39.093Z,18.93
2018-04-08T01:52:05.215Z,18.20
2018-04-08T01:54:31.325Z,21.30
2018-04-08T01:56:58.236Z,24.80
2018-04-08T01:59:25.064Z,23.40
2018-04-08T02:01:51.917Z,19.80
2018-04-08T02:04:18.001Z,18.17
2018-04-08T02:06:44.323Z,18.97
2018-04-08T02:09:10.371Z,23.00
2018-04-08T02:11:36.471Z,20.90
2018-04-08T02:14:03.285Z,21.00
2018-04-08T02:16:29.420Z,23.67
2018-04-08T02:18:55.500Z,15.03
2018-04-08T02:21:21.542Z,16.13
2018-04-08T02:23:47.587Z,14.47
2018-04-08T02:26:13.662Z,20.10
2018-04-08T02:28:40.046Z,14.87
2018-04-08T02:31:07.151Z,17.37
2018-04-08T02:33:33.354Z,16.97
2018-04-08T02:36:00.271Z,15.27
2018-04-08T02:38:26.384Z,16.80
2018-04-08T02:40:52.505Z,17.27
2018-04-08T02:43:18.637Z,19.37
2018-04-08T02:45:45.631Z,16.23
2018-04-08T02:48:11.824Z,13.17
2018-04-08T02:50:37.880Z,14.10
2018-04-08T02:53:04.379Z,16.30
2018-04-08T02:55:30.430Z,13.03
2018-04-08T02:57:56.533Z,15.83
2018-04-08T03:00:22.643Z,12.23
2018-04-08T03:02:48.754Z,16.33
2018-04-08T03:05:14.855Z,15.87
2018-04-08T03:07:40.915Z,16.27
2018-04-08T03:10:06.934Z,17.47
2018-04-08T03:12:33.106Z,16.10
2018-04-08T03:14:59.893Z,17.67
2018-04-08T03:17:25.978Z,13.87
2018-04-08T03:19:52.157Z,15.73
2018-04-08T03:22:20.075Z,17.27
2018-04-08T03:24:46.912Z,21.90
2018-04-08T03:27:13.015Z,17.50
2018-04-08T03:29:39.099Z,12.50
2018-04-08T03:32:07.169Z,13.37
2018-04-08T03:34:34.099Z,14.47
2018-04-08T03:37:00.914Z,12.43
2018-04-08T03:39:26.983Z,12.07
2018-04-08T03:41:53.851Z,11.77
2018-04-08T03:44:20.727Z,13.80
2018-04-08T03:46:46.836Z,12.50
2018-04-08T03:49:13.001Z,14.70
2018-04-08T03:51:39.037Z,11.90
2018-04-08T03:54:05.136Z,11.80
2018-04-08T03:56:31.225Z,12.63
2018-04-08T03:58:58.279Z,11.93
2018-04-08T04:01:24.760Z,12.17
2018-04-08T04:03:51.506Z,12.27
2018-04-08T04:06:17.586Z,12.53
2018-04-08T04:08:43.858Z,13.80
2018-04-08T04:11:10.032Z,14.20
2018-04-08T04:13:36.491Z,13.93
2018-04-08T04:16:03.112Z,11.87
2018-04-08T04:18:41.598Z,13.60
2018-04-08T04:21:20.691Z,12.63
2018-04-08T04:23:59.811Z,15.20
2018-04-08T04:26:30.920Z,18.10
2018-04-08T04:28:57.260Z,12.40
2018-04-08T04:31:23.962Z,12.43
2018-04-08T04:33:50.119Z,10.40
2018-04-08T04:36:16.236Z,11.13
2018-04-08T04:38:43.146Z,12.00
2018-04-08T04:41:10.196Z,11.17
2018-04-08T04:43:36.340Z,10.63
2018-04-08T04:46:02.489Z,9.43
2018-04-08T04:48:29.530Z,10.43
2018-04-08T04:50:55.751Z,9.97
2018-04-08T04:53:22.303Z,11.73
2018-04-08T04:55:50.656Z,11.17
2018-04-08T04:58:17.806Z,9.33
2018-04-08T05:00:44.039Z,11.40
2018-04-08T05:03:10.183Z,13.43
2018-04-08T05:05:36.289Z,10.33
2018-04-08T05:08:02.342Z,11.50
2018-04-08T05:10:28.550Z,11.53
2018-04-08T05:12:55.509Z,10.83
2018-04-08T05:15:21.689Z,11.83
2018-04-08T05:17:48.504Z,13.60
2018-04-08T05:20:14.582Z,12.93
2018-04-08T05:22:41.481Z,11.87
2018-04-08T05:25:07.608Z,11.37
2018-04-08T05:27:34.678Z,10.97
2018-04-08T05:30:01.524Z,13.33
2018-04-08T05:32:27.588Z,10.83
2018-04-08T05:34:54.538Z,11.90
2018-04-08T05:37:21.638Z,12.30
2018-04-08T05:39:47.880Z,13.30
2018-04-08T05:42:14.709Z,15.70
2018-04-08T05:44:40.757Z,18.27
2018-04-08T05:47:07.006Z,12.80
2018-04-08T05:49:33.081Z,14.47
2018-04-08T05:51:59.338Z,15.67
2018-04-08T05:54:26.087Z,16.37
2018-04-08T05:56:52.167Z,14.00
2018-04-08T05:59:18.314Z,15.30
2018-04-08T06:01:44.473Z,13.27
2018-04-08T06:04:10.601Z,13.90
2018-04-08T06:06:36.796Z,12.37
2018-04-08T06:09:02.968Z,12.37
2018-04-08T06:11:29.039Z,18.03
2018-04-08T06:13:55.675Z,14.10
2018-04-08T06:16:21.805Z,15.73
2018-04-08T06:18:48.340Z,11.83
2018-04-08T06:21:14.458Z,14.63
2018-04-08T06:23:40.687Z,12.23
2018-04-08T06:26:06.927Z,13.00
2018-04-08T06:28:32.988Z,15.80
2018-04-08T06:30:59.168Z,11.90
2018-04-08T06:33:25.934Z,11.33
2018-04-08T06:35:52.059Z,11.80
2018-04-08T06:38:18.190Z,13.10
2018-04-08T06:40:44.266Z,20.37
2018-04-08T06:43:10.449Z,19.37
2018-04-08T06:45:37.281Z,14.90
2018-04-08T06:48:04.121Z,17.93
2018-04-08T06:50:30.282Z,16.63
2018-04-08T06:52:57.015Z,12.47
2018-04-08T06:55:24.043Z,13.80
2018-04-08T06:57:50.463Z,17.80
2018-04-08T07:00:17.383Z,15.10
2018-04-08T07:02:43.498Z,13.80
2018-04-08T07:05:09.602Z,16.77
2018-04-08T07:07:36.987Z,15.57
2018-04-08T07:10:03.140Z,14.80
2018-04-08T07:12:29.245Z,17.90
2018-04-08T07:14:55.557Z,16.57
2018-04-08T07:17:23.312Z,13.20
2018-04-08T07:19:49.706Z,14.00
2018-04-08T07:22:15.930Z,15.13
2018-04-08T07:24:42.266Z,14.67
2018-04-08T07:27:08.341Z,15.83
2018-04-08T07:29:34.584Z,14.27
2018-04-08T07:32:01.590Z,12.53
2018-04-08T07:34:27.721Z,15.87
2018-04-08T07:36:53.895Z,16.40
2018-04-08T07:39:20.145Z,19.43
2018-04-08T07:41:46.302Z,13.40
2018-04-08T07:44:13.962Z,18.53
2018-04-08T07:46:40.907Z,16.17
2018-04-08T07:49:07.020Z,13.07
2018-04-08T07:51:33.843Z,13.87
2018-04-08T07:54:00.001Z,12.60
2018-04-08T07:56:26.330Z,13.43
2018-04-08T07:58:53.200Z,15.77
2018-04-08T08:01:20.734Z,14.50
2018-04-08T08:03:47.446Z,11.63
2018-04-08T08:06:13.514Z,13.80
2018-04-08T08:08:39.675Z,12.30
2018-04-08T08:11:06.440Z,12.87
2018-04-08T08:13:33.480Z,15.30
2018-04-08T08:16:00.588Z,15.83
2018-04-08T08:18:26.843Z,19.60
2018-04-08T08:20:52.995Z,16.00
2018-04-08T08:23:19.881Z,22.00
2018-04-08T08:25:45.999Z,13.03
2018-04-08T08:28:12.136Z,14.83
2018-04-08T08:30:38.237Z,15.10
2018-04-08T08:33:05.223Z,12.90
2018-04-08T08:35:31.363Z,11.90
2018-04-08T08:37:57.469Z,12.90
2018-04-08T08:40:24.349Z,16.50
2018-04-08T08:42:52.414Z,14.60
2018-04-08T08:45:18.584Z,15.60
2018-04-08T08:47:44.734Z,37.73
2018-04-08T08:50:11.726Z,13.73
2018-04-08T08:52:38.062Z,12.53
2018-04-08T08:55:04.220Z,11.90
2018-04-08T08:57:30.470Z,13.10
2018-04-08T08:59:57.512Z,11.23
2018-04-08T09:02:23.641Z,11.90
2018-04-08T09:04:49.917Z,12.37
2018-04-08T09:07:16.758Z,12.13
2018-04-08T09:09:43.073Z,15.57
2018-04-08T09:12:09.284Z,12.93
2018-04-08T09:14:35.402Z,13.33
2018-04-08T09:17:01.648Z,12.07
2018-04-08T09:19:31.762Z,12.40
2018-04-08T09:25:06.732Z,11.93
2018-04-08T09:27:33.539Z,11.37
2018-04-08T09:29:59.659Z,13.20
2018-04-08T09:32:25.795Z,12.67
2018-04-08T09:34:51.834Z,13.60
2018-04-08T09:37:17.848Z,10.90
2018-04-08T09:39:44.076Z,12.83
2018-04-08T09:42:10.253Z,15.47
2018-04-08T09:44:36.408Z,21.37
2018-04-08T09:47:02.429Z,15.93
2018-04-08T09:49:29.018Z,13.47
2018-04-08T09:51:55.766Z,11.90
2018-04-08T09:54:22.854Z,13.40
2018-04-08T09:56:49.020Z,24.23
2018-04-08T09:59:15.067Z,15.10
2018-04-08T10:01:48.063Z,16.17
2018-04-08T10:04:14.828Z,20.20
2018-04-08T10:06:41.072Z,15.33
2018-04-08T10:09:07.180Z,16.87
2018-04-08T10:11:33.345Z,13.07
2018-04-08T10:13:59.335Z,18.43
2018-04-08T10:16:26.093Z,11.80
2018-04-08T10:18:53.132Z,11.83
2018-04-08T10:21:19.238Z,15.17
2018-04-08T10:23:45.527Z,14.23
2018-04-08T10:26:11.650Z,11.03
2018-04-08T10:28:37.694Z,11.33
2018-04-08T10:31:03.793Z,11.90
2018-04-08T10:33:29.817Z,12.00
2018-04-08T10:35:57.057Z,12.20
2018-04-08T10:38:23.117Z,10.80
2018-04-08T10:40:49.137Z,12.40
2018-04-08T10:43:16.855Z,11.37
2018-04-08T10:45:42.937Z,11.80
2018-04-08T10:48:09.760Z,11.13
2018-04-08T10:50:35.894Z,10.77
2018-04-08T10:53:03.549Z,11.33
2018-04-08T10:55:29.721Z,13.53
2018-04-08T10:57:56.141Z,17.43
2018-04-08T11:00:24.052Z,11.77
2018-04-08T11:02:50.195Z,10.87
2018-04-08T11:05:16.409Z,11.27
2018-04-08T11:07:42.633Z,11.00
2018-04-08T11:10:08.891Z,13.47
2018-04-08T11:12:34.965Z,9.37
2018-04-08T11:15:01.839Z,9.77
2018-04-08T11:17:28.065Z,9.87
2018-04-08T11:19:55.298Z,10.20
2018-04-08T11:22:21.534Z,13.67
2018-04-08T11:24:47.806Z,12.17
2018-04-08T11:27:15.115Z,11.10
2018-04-08T11:29:41.965Z,12.10
2018-04-08T11:32:08.087Z,11.70
2018-04-08T11:34:35.083Z,10.43
2018-04-08T11:37:01.155Z,10.90
2018-04-08T11:39:27.919Z,9.90
2018-04-08T11:41:54.157Z,11.40
2018-04-08T11:44:20.359Z,10.80
2018-04-08T11:46:47.377Z,15.17
2018-04-08T11:49:13.700Z,9.40
2018-04-08T11:51:39.878Z,10.10
2018-04-08T11:54:06.071Z,8.37
2018-04-08T11:56:33.055Z,13.40
2018-04-08T11:58:59.176Z,34.40
2018-04-08T12:01:25.879Z,14.13
2018-04-08T12:03:52.043Z,10.60
2018-04-08T12:06:18.590Z,11.77
2018-04-08T12:08:44.809Z,10.53
2018-04-08T12:11:10.911Z,11.60
2018-04-08T12:13:37.297Z,13.33
2018-04-08T12:16:03.416Z,14.07
2018-04-08T12:18:29.591Z,12.67
2018-04-08T12:20:55.630Z,10.17
2018-04-08T12:23:21.894Z,9.60
2018-04-08T12:25:48.456Z,8.83
2018-04-08T12:28:14.589Z,9.13
2018-04-08T12:30:41.568Z,7.53
2018-04-08T12:33:08.267Z,7.33
2018-04-08T12:35:34.531Z,8.50
2018-04-08T12:38:00.683Z,11.70
2018-04-08T12:40:27.673Z,7.83
2018-04-08T12:42:53.942Z,8.30
2018-04-08T12:45:20.695Z,8.90
2018-04-08T12:47:46.921Z,10.63
2018-04-08T12:50:13.107Z,10.60
2018-04-08T12:52:39.536Z,11.80
2018-04-08T12:55:07.405Z,12.30
2018-04-08T12:57:33.620Z,15.30
2018-04-08T12:59:59.844Z,11.30
2018-04-08T13:02:26.403Z,11.57
2018-04-08T13:04:53.615Z,10.00
2018-04-08T13:07:19.774Z,8.50
2018-04-08T13:09:45.990Z,12.50
2018-04-08T13:12:12.890Z,9.17
2018-04-08T13:14:38.953Z,9.03
2018-04-08T13:17:06.658Z,9.87
2018-04-08T13:19:33.382Z,10.30
2018-04-08T13:22:00.235Z,12.87
2018-04-08T13:24:27.457Z,9.30
2018-04-08T13:26:54.406Z,8.63
2018-04-08T13:29:21.286Z,8.83
2018-04-08T13:31:48.448Z,10.50
2018-04-08T13:34:15.253Z,9.60
2018-04-08T13:36:41.613Z,9.63
2018-04-08T13:39:07.776Z,9.43
2018-04-08T13:41:34.008Z,11.63
2018-04-08T13:44:00.854Z,16.40
2018-04-08T13:46:26.880Z,10.43
2018-04-08T13:48:52.982Z,23.50
2018-04-08T13:51:19.120Z,10.93
2018-04-08T13:53:45.333Z,9.10
2018-04-08T13:56:11.813Z,8.60
2018-04-08T13:58:37.940Z,9.10
2018-04-08T14:01:04.751Z,8.70
2018-04-08T14:03:31.047Z,7.47
2018-04-08T14:05:58.072Z,7.80
2018-04-08T14:08:26.013Z,10.27
2018-04-08T14:10:52.883Z,6.97
2018-04-08T14:13:19.695Z,7.77
2018-04-08T14:15:46.342Z,6.97
2018-04-08T14:18:12.497Z,6.23
2018-04-08T14:20:38.523Z,9.40
2018-04-08T14:23:04.693Z,8.60
2018-04-08T14:25:30.857Z,7.23
2018-04-08T14:27:56.914Z,7.50
2018-04-08T14:30:23.057Z,7.67
2018-04-08T14:32:49.229Z,7.10
2018-04-08T14:35:15.795Z,8.03
2018-04-08T14:37:41.890Z,8.20
2018-04-08T14:40:08.740Z,6.13
2018-04-08T14:42:36.298Z,7.40
2018-04-08T14:45:03.497Z,5.60
2018-04-08T14:47:29.664Z,6.33
2018-04-08T14:49:55.967Z,6.33
2018-04-08T14:52:22.280Z,7.23
2018-04-08T14:54:48.496Z,9.50
2018-04-08T14:57:15.327Z,12.10
2018-04-08T14:59:42.425Z,7.37
2018-04-08T15:02:08.643Z,6.77
2018-04-08T15:04:34.912Z,9.03
2018-04-08T15:07:02.074Z,9.30
2018-04-08T15:09:28.248Z,8.47
2018-04-08T15:11:56.119Z,9.00
2018-04-08T15:14:23.325Z,9.37
2018-04-08T15:16:49.530Z,8.00
2018-04-08T15:19:15.776Z,10.03
2018-04-08T15:21:42.238Z,10.53
2018-04-08T15:24:08.950Z,8.00
2018-04-08T15:26:35.927Z,6.40
2018-04-08T15:29:02.855Z,6.93
2018-04-08T15:31:28.995Z,7.07
2018-04-08T15:33:56.175Z,7.00
2018-04-08T15:36:22.389Z,8.17
2018-04-08T15:38:48.524Z,7.70
2018-04-08T15:41:14.741Z,7.83
2018-04-08T15:43:40.892Z,6.90
2018-04-08T15:46:07.222Z,6.77
2018-04-08T15:48:33.350Z,9.13
2018-04-08T15:50:59.451Z,6.70
2018-04-08T15:53:25.600Z,7.40
2018-04-08T15:55:52.540Z,8.10
2018-04-08T15:58:18.614Z,10.10
2018-04-08T16:00:45.487Z,8.43
2018-04-08T16:03:11.632Z,8.37
2018-04-08T16:05:37.832Z,7.53
2018-04-08T16:08:04.038Z,7.67
2018-04-08T16:10:30.051Z,6.63
2018-04-08T16:12:56.314Z,6.40
2018-04-08T16:15:22.570Z,6.47
2018-04-08T16:17:48.654Z,9.33
2018-04-08T16:20:15.883Z,6.30
2018-04-08T16:22:42.890Z,7.30
2018-04-08T16:25:09.004Z,7.47
2018-04-08T16:27:35.254Z,12.40
2018-04-08T16:30:01.469Z,11.33
2018-04-08T16:32:27.640Z,8.53
2018-04-08T16:34:53.710Z,8.33
2018-04-08T16:37:21.474Z,8.83
2018-04-08T16:39:49.024Z,12.83
2018-04-08T16:42:18.037Z,9.53
2018-04-08T16:44:44.921Z,9.77
2018-04-08T16:47:12.048Z,8.27
2018-04-08T16:49:38.137Z,11.33
2018-04-08T16:52:04.331Z,8.23
2018-04-08T16:54:30.603Z,8.43
2018-04-08T16:56:56.760Z,14.67
2018-04-08T16:59:22.872Z,8.47
2018-04-08T17:01:49.043Z,8.07
2018-04-08T17:04:15.492Z,10.53
2018-04-08T17:06:42.441Z,9.00
2018-04-08T17:09:08.784Z,9.40
2018-04-08T17:11:35.001Z,12.47
2018-04-08T17:14:02.500Z,9.90
2018-04-08T17:16:28.603Z,9.13
2018-04-08T17:18:54.682Z,16.57
2018-04-08T17:21:20.815Z,14.57
2018-04-08T17:23:47.118Z,8.20
2018-04-08T17:26:13.293Z,7.33
2018-04-08T17:28:40.210Z,8.17
2018-04-08T17:31:07.036Z,9.27
2018-04-08T17:33:33.164Z,8.17
2018-04-08T17:35:59.365Z,8.57
2018-04-08T17:38:25.456Z,8.90
2018-04-08T17:40:51.549Z,16.17
2018-04-08T17:43:18.590Z,11.43
2018-04-08T17:45:46.199Z,8.13
2018-04-08T17:48:13.363Z,11.23
2018-04-08T17:50:40.240Z,10.50
2018-04-08T17:53:06.406Z,11.00
2018-04-08T17:55:32.929Z,11.20
2018-04-08T17:57:59.546Z,10.40
2018-04-08T18:00:25.833Z,13.37
2018-04-08T18:02:51.889Z,8.53
2018-04-08T18:05:20.262Z,8.50
2018-04-08T18:07:47.619Z,18.53
2018-04-08T18:10:13.838Z,8.93
2018-04-08T18:12:40.006Z,39.07
2018-04-08T18:15:06.955Z,23.57
2018-04-08T18:17:32.977Z,13.03
2018-04-08T18:19:59.106Z,12.00
2018-04-08T18:22:25.968Z,10.80
2018-04-08T18:24:52.482Z,18.80
2018-04-08T18:27:22.975Z,20.53
2018-04-08T18:29:49.379Z,12.43
2018-04-08T18:32:15.492Z,10.13
2018-04-08T18:34:41.744Z,11.47
2018-04-08T18:37:07.848Z,16.43
2018-04-08T18:39:34.030Z,11.73
2018-04-08T18:42:00.135Z,11.93
2018-04-08T18:44:26.569Z,10.33
2018-04-08T18:46:52.788Z,10.70
2018-04-08T18:49:18.872Z,11.93
2018-04-08T18:51:44.941Z,11.47
2018-04-08T18:54:11.253Z,17.10
2018-04-08T18:56:38.171Z,17.40
2018-04-08T18:59:04.498Z,12.17
2018-04-08T19:01:30.792Z,13.37
2018-04-08T19:03:57.470Z,12.33
2018-04-08T19:06:23.637Z,17.87
2018-04-08T19:08:49.880Z,16.30
2018-04-08T19:11:17.442Z,13.63
2018-04-08T19:13:44.293Z,12.20
2018-04-08T19:16:11.334Z,11.30
2018-04-08T19:18:38.147Z,13.43
2018-04-08T19:21:04.258Z,14.83
2018-04-08T19:23:31.008Z,13.53
2018-04-08T19:25:57.171Z,20.70
2018-04-08T19:28:23.378Z,33.70
2018-04-08T19:30:49.460Z,27.43
2018-04-08T19:33:15.532Z,22.17
2018-04-08T19:35:41.659Z,14.20
2018-04-08T19:38:07.884Z,13.50
2018-04-08T19:40:33.892Z,13.17
2018-04-08T19:43:01.246Z,12.00
2018-04-08T19:45:27.435Z,11.33
2018-04-08T19:47:54.062Z,12.97
2018-04-08T19:50:20.148Z,14.13
2018-04-08T19:52:46.286Z,11.00
2018-04-08T19:55:12.440Z,16.03
2018-04-08T19:57:38.701Z,11.80
2018-04-08T20:00:04.940Z,10.80
2018-04-08T20:02:31.149Z,11.40
2018-04-08T20:04:57.337Z,11.60
2018-04-08T20:07:23.496Z,11.40
2018-04-08T20:09:49.717Z,11.93
2018-04-08T20:12:16.009Z,15.00
2018-04-08T20:14:44.693Z,15.33
2018-04-08T20:17:11.107Z,15.63
2018-04-08T20:19:38.327Z,20.97
2018-04-08T20:22:04.479Z,16.23
2018-04-08T20:24:31.357Z,23.97
2018-04-08T20:26:57.437Z,28.60
2018-04-08T20:29:23.765Z,19.50
2018-04-08T20:31:51.192Z,17.20
2018-04-08T20:34:17.372Z,19.40
2018-04-08T20:36:43.560Z,23.93
2018-04-08T20:39:10.610Z,21.20
2018-04-08T20:41:36.645Z,20.77
2018-04-08T20:44:02.788Z,23.60
2018-04-08T20:46:28.871Z,15.33
2018-04-08T20:48:55.692Z,19.83
2018-04-08T20:51:21.945Z,22.47
2018-04-08T20:53:49.003Z,17.40
2018-04-08T20:56:15.138Z,15.67
2018-04-08T20:58:41.966Z,27.43
2018-04-08T21:01:08.364Z,18.77
2018-04-08T21:03:35.917Z,15.50
2018-04-08T21:06:02.816Z,16.30
2018-04-08T21:08:28.920Z,19.10
2018-04-08T21:10:55.100Z,16.67
2018-04-08T21:13:21.202Z,19.33
2018-04-08T21:15:47.238Z,22.27
2018-04-08T21:18:15.024Z,29.53
2018-04-08T21:20:41.953Z,17.97
2018-04-08T21:23:08.908Z,18.90
2018-04-08T21:25:35.814Z,16.57
2018-04-08T21:28:01.876Z,19.37
2018-04-08T21:30:27.910Z,18.27
2018-04-08T21:32:53.971Z,24.93
2018-04-08T21:35:19.993Z,22.57
2018-04-08T21:37:48.385Z,16.00
2018-04-08T21:40:15.182Z,15.83
2018-04-08T21:42:41.613Z,16.03
2018-04-08T21:45:07.801Z,16.87
2018-04-08T21:47:34.650Z,17.27
2018-04-08T21:50:00.817Z,16.10
2018-04-08T21:52:28.040Z,15.53
2018-04-08T21:54:54.627Z,23.43
2018-04-08T21:57:20.708Z,20.20
2018-04-08T21:59:47.536Z,17.60
2018-04-08T22:02:13.748Z,15.00
2018-04-08T22:04:39.932Z,15.37
2018-04-08T22:07:06.830Z,14.07
2018-04-08T22:09:32.958Z,22.50
2018-04-08T22:11:59.044Z,17.27
2018-04-08T22:14:25.929Z,16.93
2018-04-08T22:16:52.018Z,14.17
2018-04-08T22:19:18.901Z,14.20
2018-04-08T22:21:44.986Z,17.73
2018-04-08T22:24:11.239Z,19.93
2018-04-08T22:26:38.073Z,16.13
2018-04-08T22:29:04.891Z,17.73
2018-04-08T22:31:30.931Z,16.17
2018-04-08T22:33:57.069Z,15.93
2018-04-08T22:36:23.134Z,14.47
2018-04-08T22:38:50.104Z,19.87
2018-04-08T22:41:16.347Z,20.17
2018-04-08T22:43:42.550Z,14.73
2018-04-08T22:46:08.694Z,18.77
2018-04-08T22:48:34.795Z,14.07
2018-04-08T22:51:01.654Z,15.20
2018-04-08T22:53:28.753Z,16.77
2018-04-08T22:55:54.940Z,16.97
2018-04-08T22:58:20.993Z,14.10
2018-04-08T23:00:47.167Z,19.03
2018-04-08T23:03:13.291Z,14.07
2018-04-08T23:05:40.156Z,12.70
2018-04-08T23:08:06.256Z,14.37
2018-04-08T23:10:32.500Z,13.40
2018-04-08T23:13:00.423Z,14.87
2018-04-08T23:15:27.254Z,18.70
2018-04-08T23:17:53.425Z,13.07
2018-04-08T23:20:19.470Z,16.30
2018-04-08T23:22:45.557Z,15.37
2018-04-08T23:25:12.481Z,24.03
2018-04-08T23:27:38.663Z,13.73
2018-04-08T23:30:04.769Z,17.40
2018-04-08T23:32:30.917Z,13.20
2018-04-08T23:34:57.957Z,16.23
2018-04-08T23:37:24.839Z,19.37
2018-04-08T23:39:51.037Z,16.30
2018-04-08T23:42:17.193Z,16.57
2018-04-08T23:44:44.079Z,16.17
2018-04-08T23:47:10.180Z,15.00
2018-04-08T23:49:36.859Z,16.90
2018-04-08T23:52:02.917Z,21.90
2018-04-08T23:54:29.152Z,16.13
2018-04-08T23:56:55.305Z,16.67
2018-04-08T23:59:22.127Z,17.53
